sensor_id;sensor_type;location;lat;lon;timestamp;P1;durP1;ratioP1;P2;durP2;ratioP2
31652;SDS011;18261;53.648;9.910;2024-01-30T00:01:12;27.85;;;13.00;;
31652;SDS011;18261;53.648;9.910;2024-01-30T00:03:38;29.42;;;13.85;;
31652;SDS011;18261;53.648;9.910;2024-01-30T00:06:03;24.77;;;13.25;;
31652;SDS011;18261;53.648;9.910;2024-01-30T00:08:29;28.65;;;14.18;;
31652;SDS011;18261;53.648;9.910;2024-01-30T00:10:55;27.45;;;13.18;;
31652;SDS011;18261;53.648;9.910;2024-01-30T00:13:20;27.08;;;13.40;;
31652;SDS011;18261;53.648;9.910;2024-01-30T00:15:46;28.05;;;13.38;;
31652;SDS011;18261;53.648;9.910;2024-01-30T00:18:11;35.28;;;13.20;;
31652;SDS011;18261;53.648;9.910;2024-01-30T00:20:37;30.40;;;14.10;;
31652;SDS011;18261;53.648;9.910;2024-01-30T00:23:03;24.85;;;13.15;;
31652;SDS011;18261;53.648;9.910;2024-01-30T00:25:29;24.17;;;13.25;;
31652;SDS011;18261;53.648;9.910;2024-01-30T00:27:55;32.47;;;14.48;;
31652;SDS011;18261;53.648;9.910;2024-01-30T00:30:21;27.25;;;13.02;;
31652;SDS011;18261;53.648;9.910;2024-01-30T00:32:46;25.10;;;13.05;;
31652;SDS011;18261;53.648;9.910;2024-01-30T00:35:12;24.52;;;12.57;;
31652;SDS011;18261;53.648;9.910;2024-01-30T00:37:37;24.77;;;13.00;;
31652;SDS011;18261;53.648;9.910;2024-01-30T00:40:03;27.40;;;13.70;;
31652;SDS011;18261;53.648;9.910;2024-01-30T00:42:31;30.73;;;14.45;;
31652;SDS011;18261;53.648;9.910;2024-01-30T00:44:57;24.85;;;14.32;;
31652;SDS011;18261;53.648;9.910;2024-01-30T00:47:22;28.95;;;14.25;;
31652;SDS011;18261;53.648;9.910;2024-01-30T00:49:48;29.15;;;14.77;;
31652;SDS011;18261;53.648;9.910;2024-01-30T00:52:14;30.70;;;13.55;;
31652;SDS011;18261;53.648;9.910;2024-01-30T00:54:40;24.48;;;12.85;;
31652;SDS011;18261;53.648;9.910;2024-01-30T00:57:07;25.15;;;13.35;;
31652;SDS011;18261;53.648;9.910;2024-01-30T00:59:32;24.58;;;13.10;;
31652;SDS011;18261;53.648;9.910;2024-01-30T01:01:58;31.00;;;13.73;;
31652;SDS011;18261;53.648;9.910;2024-01-30T01:04:24;28.17;;;13.18;;
31652;SDS011;18261;53.648;9.910;2024-01-30T01:06:51;24.90;;;13.32;;
31652;SDS011;18261;53.648;9.910;2024-01-30T01:09:17;28.48;;;12.85;;
31652;SDS011;18261;53.648;9.910;2024-01-30T01:11:43;25.20;;;12.80;;
31652;SDS011;18261;53.648;9.910;2024-01-30T01:14:08;26.77;;;13.23;;
31652;SDS011;18261;53.648;9.910;2024-01-30T01:16:34;24.42;;;13.80;;
31652;SDS011;18261;53.648;9.910;2024-01-30T01:19:00;29.67;;;14.10;;
31652;SDS011;18261;53.648;9.910;2024-01-30T01:21:25;25.45;;;12.45;;
31652;SDS011;18261;53.648;9.910;2024-01-30T01:23:51;27.90;;;13.95;;
31652;SDS011;18261;53.648;9.910;2024-01-30T01:26:17;22.90;;;12.30;;
31652;SDS011;18261;53.648;9.910;2024-01-30T01:28:42;25.88;;;13.18;;
31652;SDS011;18261;53.648;9.910;2024-01-30T01:31:08;27.13;;;13.57;;
31652;SDS011;18261;53.648;9.910;2024-01-30T01:33:34;25.75;;;13.25;;
31652;SDS011;18261;53.648;9.910;2024-01-30T01:36:02;28.08;;;13.93;;
31652;SDS011;18261;53.648;9.910;2024-01-30T01:38:28;29.08;;;13.30;;
31652;SDS011;18261;53.648;9.910;2024-01-30T01:40:53;25.40;;;12.68;;
31652;SDS011;18261;53.648;9.910;2024-01-30T01:43:19;29.40;;;12.32;;
31652;SDS011;18261;53.648;9.910;2024-01-30T01:45:45;23.33;;;13.52;;
31652;SDS011;18261;53.648;9.910;2024-01-30T01:48:10;23.58;;;12.82;;
31652;SDS011;18261;53.648;9.910;2024-01-30T01:50:37;28.15;;;14.23;;
31652;SDS011;18261;53.648;9.910;2024-01-30T01:53:03;24.70;;;13.07;;
31652;SDS011;18261;53.648;9.910;2024-01-30T01:55:32;28.10;;;13.23;;
31652;SDS011;18261;53.648;9.910;2024-01-30T01:57:59;29.08;;;13.60;;
31652;SDS011;18261;53.648;9.910;2024-01-30T02:00:25;27.30;;;13.68;;
31652;SDS011;18261;53.648;9.910;2024-01-30T02:02:50;21.67;;;12.38;;
31652;SDS011;18261;53.648;9.910;2024-01-30T02:05:19;25.00;;;13.38;;
31652;SDS011;18261;53.648;9.910;2024-01-30T02:07:45;31.15;;;14.55;;
31652;SDS011;18261;53.648;9.910;2024-01-30T02:10:11;24.60;;;12.85;;
31652;SDS011;18261;53.648;9.910;2024-01-30T02:12:37;25.90;;;13.10;;
31652;SDS011;18261;53.648;9.910;2024-01-30T02:15:03;27.48;;;12.70;;
31652;SDS011;18261;53.648;9.910;2024-01-30T02:17:30;26.27;;;14.15;;
31652;SDS011;18261;53.648;9.910;2024-01-30T02:19:56;26.50;;;14.10;;
31652;SDS011;18261;53.648;9.910;2024-01-30T02:22:22;24.80;;;13.32;;
31652;SDS011;18261;53.648;9.910;2024-01-30T02:24:48;25.38;;;13.43;;
31652;SDS011;18261;53.648;9.910;2024-01-30T02:27:14;27.50;;;13.48;;
31652;SDS011;18261;53.648;9.910;2024-01-30T02:29:40;21.27;;;12.95;;
31652;SDS011;18261;53.648;9.910;2024-01-30T02:32:05;23.95;;;12.75;;
31652;SDS011;18261;53.648;9.910;2024-01-30T02:34:32;27.90;;;13.43;;
31652;SDS011;18261;53.648;9.910;2024-01-30T02:36:58;24.75;;;12.50;;
31652;SDS011;18261;53.648;9.910;2024-01-30T02:39:24;24.08;;;12.75;;
31652;SDS011;18261;53.648;9.910;2024-01-30T02:41:49;23.95;;;12.50;;
31652;SDS011;18261;53.648;9.910;2024-01-30T02:44:15;21.60;;;12.40;;
31652;SDS011;18261;53.648;9.910;2024-01-30T02:46:41;23.85;;;11.88;;
31652;SDS011;18261;53.648;9.910;2024-01-30T02:49:06;24.05;;;12.18;;
31652;SDS011;18261;53.648;9.910;2024-01-30T02:51:32;26.90;;;11.60;;
31652;SDS011;18261;53.648;9.910;2024-01-30T02:53:58;23.30;;;11.88;;
31652;SDS011;18261;53.648;9.910;2024-01-30T02:56:23;21.52;;;11.98;;
31652;SDS011;18261;53.648;9.910;2024-01-30T02:58:49;20.48;;;11.70;;
31652;SDS011;18261;53.648;9.910;2024-01-30T03:01:14;27.40;;;12.63;;
31652;SDS011;18261;53.648;9.910;2024-01-30T03:03:40;28.60;;;12.25;;
31652;SDS011;18261;53.648;9.910;2024-01-30T03:06:06;22.55;;;11.15;;
31652;SDS011;18261;53.648;9.910;2024-01-30T03:08:32;21.88;;;11.52;;
31652;SDS011;18261;53.648;9.910;2024-01-30T03:10:59;26.35;;;12.68;;
31652;SDS011;18261;53.648;9.910;2024-01-30T03:13:25;26.67;;;12.27;;
31652;SDS011;18261;53.648;9.910;2024-01-30T03:15:51;26.15;;;11.18;;
31652;SDS011;18261;53.648;9.910;2024-01-30T03:18:16;21.48;;;11.68;;
31652;SDS011;18261;53.648;9.910;2024-01-30T03:20:42;23.42;;;11.60;;
31652;SDS011;18261;53.648;9.910;2024-01-30T03:23:08;27.58;;;12.00;;
31652;SDS011;18261;53.648;9.910;2024-01-30T03:25:34;23.67;;;12.32;;
31652;SDS011;18261;53.648;9.910;2024-01-30T03:27:59;22.42;;;11.45;;
31652;SDS011;18261;53.648;9.910;2024-01-30T03:30:25;22.88;;;11.18;;
31652;SDS011;18261;53.648;9.910;2024-01-30T03:32:51;24.08;;;12.30;;
31652;SDS011;18261;53.648;9.910;2024-01-30T03:35:16;21.02;;;11.35;;
31652;SDS011;18261;53.648;9.910;2024-01-30T03:37:43;22.27;;;11.75;;
31652;SDS011;18261;53.648;9.910;2024-01-30T03:40:09;23.10;;;12.05;;
31652;SDS011;18261;53.648;9.910;2024-01-30T03:42:35;24.15;;;13.02;;
31652;SDS011;18261;53.648;9.910;2024-01-30T03:45:01;26.10;;;11.55;;
31652;SDS011;18261;53.648;9.910;2024-01-30T03:47:27;21.20;;;11.40;;
31652;SDS011;18261;53.648;9.910;2024-01-30T03:49:53;22.60;;;11.38;;
31652;SDS011;18261;53.648;9.910;2024-01-30T03:52:18;25.30;;;12.27;;
31652;SDS011;18261;53.648;9.910;2024-01-30T03:54:44;25.80;;;11.90;;
31652;SDS011;18261;53.648;9.910;2024-01-30T03:57:09;25.45;;;12.70;;
31652;SDS011;18261;53.648;9.910;2024-01-30T03:59:37;22.50;;;11.45;;
31652;SDS011;18261;53.648;9.910;2024-01-30T04:02:03;22.52;;;10.75;;
31652;SDS011;18261;53.648;9.910;2024-01-30T04:04:29;21.88;;;11.60;;
31652;SDS011;18261;53.648;9.910;2024-01-30T04:06:54;20.48;;;11.65;;
31652;SDS011;18261;53.648;9.910;2024-01-30T04:09:20;27.70;;;13.30;;
31652;SDS011;18261;53.648;9.910;2024-01-30T04:11:46;24.27;;;12.30;;
31652;SDS011;18261;53.648;9.910;2024-01-30T04:14:11;20.92;;;11.10;;
31652;SDS011;18261;53.648;9.910;2024-01-30T04:16:37;24.85;;;12.20;;
31652;SDS011;18261;53.648;9.910;2024-01-30T04:19:02;23.77;;;12.50;;
31652;SDS011;18261;53.648;9.910;2024-01-30T04:21:28;21.77;;;11.18;;
31652;SDS011;18261;53.648;9.910;2024-01-30T04:23:53;22.40;;;11.25;;
31652;SDS011;18261;53.648;9.910;2024-01-30T04:26:19;34.67;;;16.15;;
31652;SDS011;18261;53.648;9.910;2024-01-30T04:28:45;24.75;;;12.93;;
31652;SDS011;18261;53.648;9.910;2024-01-30T04:31:10;21.80;;;11.48;;
31652;SDS011;18261;53.648;9.910;2024-01-30T04:33:36;27.55;;;12.07;;
31652;SDS011;18261;53.648;9.910;2024-01-30T04:36:03;39.25;;;15.82;;
31652;SDS011;18261;53.648;9.910;2024-01-30T04:38:33;28.33;;;13.50;;
31652;SDS011;18261;53.648;9.910;2024-01-30T04:40:59;58.17;;;19.85;;
31652;SDS011;18261;53.648;9.910;2024-01-30T04:43:25;31.13;;;14.00;;
31652;SDS011;18261;53.648;9.910;2024-01-30T04:45:51;27.33;;;12.02;;
31652;SDS011;18261;53.648;9.910;2024-01-30T04:48:17;26.73;;;11.82;;
31652;SDS011;18261;53.648;9.910;2024-01-30T04:50:42;24.77;;;12.18;;
31652;SDS011;18261;53.648;9.910;2024-01-30T04:53:08;20.15;;;11.30;;
31652;SDS011;18261;53.648;9.910;2024-01-30T04:55:34;26.48;;;12.43;;
31652;SDS011;18261;53.648;9.910;2024-01-30T04:58:01;24.00;;;12.48;;
31652;SDS011;18261;53.648;9.910;2024-01-30T05:00:27;33.03;;;14.45;;
31652;SDS011;18261;53.648;9.910;2024-01-30T05:02:52;26.70;;;12.05;;
31652;SDS011;18261;53.648;9.910;2024-01-30T05:05:19;24.98;;;12.63;;
31652;SDS011;18261;53.648;9.910;2024-01-30T05:07:46;22.80;;;12.32;;
31652;SDS011;18261;53.648;9.910;2024-01-30T05:10:12;23.85;;;12.73;;
31652;SDS011;18261;53.648;9.910;2024-01-30T05:12:38;26.40;;;12.85;;
31652;SDS011;18261;53.648;9.910;2024-01-30T05:15:04;24.58;;;13.40;;
31652;SDS011;18261;53.648;9.910;2024-01-30T05:17:30;26.17;;;13.15;;
31652;SDS011;18261;53.648;9.910;2024-01-30T05:19:55;22.30;;;11.95;;
31652;SDS011;18261;53.648;9.910;2024-01-30T05:22:21;20.13;;;11.63;;
31652;SDS011;18261;53.648;9.910;2024-01-30T05:24:47;22.23;;;12.13;;
31652;SDS011;18261;53.648;9.910;2024-01-30T05:27:12;21.05;;;11.50;;
31652;SDS011;18261;53.648;9.910;2024-01-30T05:29:41;21.35;;;12.77;;
31652;SDS011;18261;53.648;9.910;2024-01-30T05:32:06;21.58;;;12.15;;
31652;SDS011;18261;53.648;9.910;2024-01-30T05:34:32;22.52;;;12.90;;
31652;SDS011;18261;53.648;9.910;2024-01-30T05:36:58;27.92;;;13.15;;
31652;SDS011;18261;53.648;9.910;2024-01-30T05:39:24;23.80;;;13.43;;
31652;SDS011;18261;53.648;9.910;2024-01-30T05:41:49;26.02;;;13.57;;
31652;SDS011;18261;53.648;9.910;2024-01-30T05:44:15;26.05;;;14.02;;
31652;SDS011;18261;53.648;9.910;2024-01-30T05:46:40;35.03;;;14.73;;
31652;SDS011;18261;53.648;9.910;2024-01-30T05:49:06;30.40;;;15.80;;
31652;SDS011;18261;53.648;9.910;2024-01-30T05:51:32;31.95;;;15.18;;
31652;SDS011;18261;53.648;9.910;2024-01-30T05:53:58;28.35;;;14.68;;
31652;SDS011;18261;53.648;9.910;2024-01-30T05:56:23;39.42;;;15.55;;
31652;SDS011;18261;53.648;9.910;2024-01-30T05:58:49;27.92;;;15.57;;
31652;SDS011;18261;53.648;9.910;2024-01-30T06:01:17;28.45;;;15.00;;
31652;SDS011;18261;53.648;9.910;2024-01-30T06:03:43;30.70;;;14.70;;
31652;SDS011;18261;53.648;9.910;2024-01-30T06:06:09;32.20;;;13.75;;
31652;SDS011;18261;53.648;9.910;2024-01-30T06:08:34;25.80;;;14.65;;
31652;SDS011;18261;53.648;9.910;2024-01-30T06:11:00;33.55;;;14.68;;
31652;SDS011;18261;53.648;9.910;2024-01-30T06:13:26;28.83;;;14.60;;
31652;SDS011;18261;53.648;9.910;2024-01-30T06:15:52;27.15;;;15.18;;
31652;SDS011;18261;53.648;9.910;2024-01-30T06:18:17;32.42;;;15.75;;
31652;SDS011;18261;53.648;9.910;2024-01-30T06:20:43;29.52;;;14.57;;
31652;SDS011;18261;53.648;9.910;2024-01-30T06:23:09;28.95;;;15.23;;
31652;SDS011;18261;53.648;9.910;2024-01-30T06:25:35;27.27;;;14.73;;
31652;SDS011;18261;53.648;9.910;2024-01-30T06:28:00;25.50;;;13.85;;
31652;SDS011;18261;53.648;9.910;2024-01-30T06:30:26;31.30;;;14.88;;
31652;SDS011;18261;53.648;9.910;2024-01-30T06:32:51;31.10;;;15.18;;
31652;SDS011;18261;53.648;9.910;2024-01-30T06:35:17;25.48;;;14.05;;
31652;SDS011;18261;53.648;9.910;2024-01-30T06:37:43;30.15;;;14.38;;
31652;SDS011;18261;53.648;9.910;2024-01-30T06:40:09;23.67;;;14.23;;
31652;SDS011;18261;53.648;9.910;2024-01-30T06:42:34;29.67;;;15.63;;
31652;SDS011;18261;53.648;9.910;2024-01-30T06:45:00;32.15;;;15.05;;
31652;SDS011;18261;53.648;9.910;2024-01-30T06:47:26;24.38;;;14.57;;
31652;SDS011;18261;53.648;9.910;2024-01-30T06:49:51;25.75;;;14.38;;
31652;SDS011;18261;53.648;9.910;2024-01-30T06:52:17;33.05;;;14.82;;
31652;SDS011;18261;53.648;9.910;2024-01-30T06:54:42;30.95;;;16.85;;
31652;SDS011;18261;53.648;9.910;2024-01-30T06:57:08;28.88;;;15.68;;
31652;SDS011;18261;53.648;9.910;2024-01-30T06:59:36;25.55;;;14.60;;
31652;SDS011;18261;53.648;9.910;2024-01-30T07:02:08;28.75;;;14.98;;
31652;SDS011;18261;53.648;9.910;2024-01-30T07:04:34;30.13;;;14.93;;
31652;SDS011;18261;53.648;9.910;2024-01-30T07:07:00;28.58;;;15.40;;
31652;SDS011;18261;53.648;9.910;2024-01-30T07:09:25;27.98;;;15.50;;
31652;SDS011;18261;53.648;9.910;2024-01-30T07:11:52;27.40;;;14.57;;
31652;SDS011;18261;53.648;9.910;2024-01-30T07:14:18;25.90;;;14.27;;
31652;SDS011;18261;53.648;9.910;2024-01-30T07:16:44;27.70;;;14.45;;
31652;SDS011;18261;53.648;9.910;2024-01-30T07:19:09;24.48;;;14.88;;
31652;SDS011;18261;53.648;9.910;2024-01-30T07:21:35;29.60;;;14.88;;
31652;SDS011;18261;53.648;9.910;2024-01-30T07:24:00;26.92;;;15.00;;
31652;SDS011;18261;53.648;9.910;2024-01-30T07:26:26;27.30;;;15.00;;
31652;SDS011;18261;53.648;9.910;2024-01-30T07:28:51;29.27;;;14.38;;
31652;SDS011;18261;53.648;9.910;2024-01-30T07:31:17;25.25;;;13.57;;
31652;SDS011;18261;53.648;9.910;2024-01-30T07:33:45;31.80;;;15.85;;
31652;SDS011;18261;53.648;9.910;2024-01-30T07:36:11;26.20;;;14.82;;
31652;SDS011;18261;53.648;9.910;2024-01-30T07:38:37;33.00;;;15.80;;
31652;SDS011;18261;53.648;9.910;2024-01-30T07:41:02;27.20;;;15.65;;
31652;SDS011;18261;53.648;9.910;2024-01-30T07:43:28;27.63;;;15.48;;
31652;SDS011;18261;53.648;9.910;2024-01-30T07:45:53;33.83;;;16.75;;
31652;SDS011;18261;53.648;9.910;2024-01-30T07:48:19;48.47;;;19.92;;
31652;SDS011;18261;53.648;9.910;2024-01-30T07:50:44;38.03;;;16.63;;
31652;SDS011;18261;53.648;9.910;2024-01-30T07:53:10;54.10;;;22.63;;
31652;SDS011;18261;53.648;9.910;2024-01-30T07:55:36;51.13;;;21.65;;
31652;SDS011;18261;53.648;9.910;2024-01-30T08:01:26;44.42;;;19.73;;
31652;SDS011;18261;53.648;9.910;2024-01-30T08:03:52;31.48;;;14.80;;
31652;SDS011;18261;53.648;9.910;2024-01-30T08:06:18;32.95;;;15.35;;
31652;SDS011;18261;53.648;9.910;2024-01-30T08:08:44;30.27;;;15.35;;
31652;SDS011;18261;53.648;9.910;2024-01-30T08:11:10;28.17;;;14.50;;
31652;SDS011;18261;53.648;9.910;2024-01-30T08:13:35;30.35;;;16.05;;
31652;SDS011;18261;53.648;9.910;2024-01-30T08:16:01;25.30;;;14.80;;
31652;SDS011;18261;53.648;9.910;2024-01-30T08:18:27;28.13;;;15.05;;
31652;SDS011;18261;53.648;9.910;2024-01-30T08:20:52;33.83;;;16.05;;
31652;SDS011;18261;53.648;9.910;2024-01-30T08:23:18;26.95;;;15.07;;
31652;SDS011;18261;53.648;9.910;2024-01-30T08:25:43;32.60;;;16.05;;
31652;SDS011;18261;53.648;9.910;2024-01-30T08:28:09;30.73;;;16.88;;
31652;SDS011;18261;53.648;9.910;2024-01-30T08:30:34;45.33;;;17.35;;
31652;SDS011;18261;53.648;9.910;2024-01-30T08:33:00;30.65;;;17.27;;
31652;SDS011;18261;53.648;9.910;2024-01-30T08:35:26;40.55;;;18.35;;
31652;SDS011;18261;53.648;9.910;2024-01-30T08:37:51;28.98;;;16.05;;
31652;SDS011;18261;53.648;9.910;2024-01-30T08:40:19;33.60;;;16.63;;
31652;SDS011;18261;53.648;9.910;2024-01-30T08:42:45;34.85;;;16.60;;
31652;SDS011;18261;53.648;9.910;2024-01-30T08:45:10;33.22;;;14.95;;
31652;SDS011;18261;53.648;9.910;2024-01-30T08:47:36;32.17;;;16.13;;
31652;SDS011;18261;53.648;9.910;2024-01-30T08:50:02;44.47;;;16.70;;
31652;SDS011;18261;53.648;9.910;2024-01-30T08:52:27;33.42;;;16.70;;
31652;SDS011;18261;53.648;9.910;2024-01-30T08:54:53;33.45;;;16.23;;
31652;SDS011;18261;53.648;9.910;2024-01-30T08:57:19;38.97;;;16.65;;
31652;SDS011;18261;53.648;9.910;2024-01-30T08:59:45;30.73;;;15.98;;
31652;SDS011;18261;53.648;9.910;2024-01-30T09:02:11;38.03;;;16.23;;
31652;SDS011;18261;53.648;9.910;2024-01-30T09:04:38;36.40;;;16.42;;
31652;SDS011;18261;53.648;9.910;2024-01-30T09:07:04;33.85;;;15.98;;
31652;SDS011;18261;53.648;9.910;2024-01-30T09:09:33;27.08;;;15.45;;
31652;SDS011;18261;53.648;9.910;2024-01-30T09:11:59;26.95;;;14.70;;
31652;SDS011;18261;53.648;9.910;2024-01-30T09:14:29;29.63;;;16.40;;
31652;SDS011;18261;53.648;9.910;2024-01-30T09:16:55;36.20;;;15.88;;
31652;SDS011;18261;53.648;9.910;2024-01-30T09:19:21;31.15;;;16.42;;
31652;SDS011;18261;53.648;9.910;2024-01-30T09:21:46;34.35;;;16.75;;
31652;SDS011;18261;53.648;9.910;2024-01-30T09:24:12;33.75;;;15.77;;
31652;SDS011;18261;53.648;9.910;2024-01-30T09:26:38;28.02;;;15.40;;
31652;SDS011;18261;53.648;9.910;2024-01-30T09:29:03;28.75;;;15.35;;
31652;SDS011;18261;53.648;9.910;2024-01-30T09:31:29;25.88;;;14.32;;
31652;SDS011;18261;53.648;9.910;2024-01-30T09:33:54;33.92;;;17.33;;
31652;SDS011;18261;53.648;9.910;2024-01-30T09:36:20;34.60;;;15.65;;
31652;SDS011;18261;53.648;9.910;2024-01-30T09:38:46;32.72;;;17.38;;
31652;SDS011;18261;53.648;9.910;2024-01-30T09:41:12;29.00;;;15.32;;
31652;SDS011;18261;53.648;9.910;2024-01-30T09:43:38;39.20;;;16.48;;
31652;SDS011;18261;53.648;9.910;2024-01-30T09:46:05;32.55;;;17.33;;
31652;SDS011;18261;53.648;9.910;2024-01-30T09:48:32;32.30;;;15.60;;
31652;SDS011;18261;53.648;9.910;2024-01-30T09:50:59;33.17;;;15.75;;
31652;SDS011;18261;53.648;9.910;2024-01-30T09:53:25;27.17;;;16.00;;
31652;SDS011;18261;53.648;9.910;2024-01-30T09:55:51;32.42;;;16.10;;
31652;SDS011;18261;53.648;9.910;2024-01-30T09:58:17;26.15;;;15.13;;
31652;SDS011;18261;53.648;9.910;2024-01-30T10:00:42;34.60;;;15.60;;
31652;SDS011;18261;53.648;9.910;2024-01-30T10:03:08;31.58;;;15.35;;
31652;SDS011;18261;53.648;9.910;2024-01-30T10:05:35;30.17;;;16.60;;
31652;SDS011;18261;53.648;9.910;2024-01-30T10:08:05;33.13;;;15.93;;
31652;SDS011;18261;53.648;9.910;2024-01-30T10:10:33;39.38;;;17.17;;
31652;SDS011;18261;53.648;9.910;2024-01-30T10:12:59;29.30;;;15.57;;
31652;SDS011;18261;53.648;9.910;2024-01-30T10:15:25;30.08;;;16.70;;
31652;SDS011;18261;53.648;9.910;2024-01-30T10:17:52;31.10;;;16.05;;
31652;SDS011;18261;53.648;9.910;2024-01-30T10:20:18;77.20;;;31.10;;
31652;SDS011;18261;53.648;9.910;2024-01-30T10:22:44;28.92;;;17.02;;
31652;SDS011;18261;53.648;9.910;2024-01-30T10:25:11;30.38;;;16.20;;
31652;SDS011;18261;53.648;9.910;2024-01-30T10:27:36;32.60;;;15.95;;
31652;SDS011;18261;53.648;9.910;2024-01-30T10:30:04;25.98;;;15.65;;
31652;SDS011;18261;53.648;9.910;2024-01-30T10:32:30;30.08;;;15.75;;
31652;SDS011;18261;53.648;9.910;2024-01-30T10:34:56;38.08;;;19.10;;
31652;SDS011;18261;53.648;9.910;2024-01-30T10:37:22;32.58;;;15.93;;
31652;SDS011;18261;53.648;9.910;2024-01-30T10:39:50;37.30;;;16.67;;
31652;SDS011;18261;53.648;9.910;2024-01-30T10:42:22;27.23;;;15.85;;
31652;SDS011;18261;53.648;9.910;2024-01-30T10:47:44;27.98;;;15.23;;
31652;SDS011;18261;53.648;9.910;2024-01-30T10:50:14;28.15;;;16.00;;
31652;SDS011;18261;53.648;9.910;2024-01-30T10:52:40;37.13;;;15.98;;
31652;SDS011;18261;53.648;9.910;2024-01-30T10:55:07;30.75;;;17.42;;
31652;SDS011;18261;53.648;9.910;2024-01-30T10:57:36;31.17;;;14.98;;
31652;SDS011;18261;53.648;9.910;2024-01-30T11:00:03;27.23;;;15.00;;
31652;SDS011;18261;53.648;9.910;2024-01-30T11:02:40;41.92;;;14.90;;
31652;SDS011;18261;53.648;9.910;2024-01-30T11:05:08;35.67;;;16.40;;
31652;SDS011;18261;53.648;9.910;2024-01-30T11:07:34;35.17;;;15.40;;
31652;SDS011;18261;53.648;9.910;2024-01-30T11:10:03;26.30;;;15.10;;
31652;SDS011;18261;53.648;9.910;2024-01-30T11:12:32;33.70;;;15.88;;
31652;SDS011;18261;53.648;9.910;2024-01-30T11:15:02;30.15;;;15.00;;
31652;SDS011;18261;53.648;9.910;2024-01-30T11:20:31;25.80;;;13.65;;
31652;SDS011;18261;53.648;9.910;2024-01-30T11:22:57;28.75;;;14.77;;
31652;SDS011;18261;53.648;9.910;2024-01-30T11:25:24;31.85;;;14.05;;
31652;SDS011;18261;53.648;9.910;2024-01-30T11:27:51;30.08;;;14.88;;
31652;SDS011;18261;53.648;9.910;2024-01-30T11:30:25;27.65;;;14.95;;
31652;SDS011;18261;53.648;9.910;2024-01-30T11:32:58;30.33;;;14.70;;
31652;SDS011;18261;53.648;9.910;2024-01-30T11:35:29;32.65;;;15.75;;
31652;SDS011;18261;53.648;9.910;2024-01-30T11:37:59;28.75;;;15.02;;
31652;SDS011;18261;53.648;9.910;2024-01-30T11:40:29;32.45;;;15.02;;
31652;SDS011;18261;53.648;9.910;2024-01-30T11:42:56;28.20;;;15.05;;
31652;SDS011;18261;53.648;9.910;2024-01-30T11:45:23;27.35;;;14.63;;
31652;SDS011;18261;53.648;9.910;2024-01-30T11:47:48;28.17;;;15.38;;
31652;SDS011;18261;53.648;9.910;2024-01-30T11:50:14;29.10;;;14.55;;
31652;SDS011;18261;53.648;9.910;2024-01-30T11:52:40;28.95;;;13.82;;
31652;SDS011;18261;53.648;9.910;2024-01-30T11:55:07;25.77;;;13.68;;
31652;SDS011;18261;53.648;9.910;2024-01-30T11:57:33;32.10;;;14.18;;
31652;SDS011;18261;53.648;9.910;2024-01-30T12:00:01;26.15;;;14.07;;
31652;SDS011;18261;53.648;9.910;2024-01-30T12:02:29;25.20;;;13.75;;
31652;SDS011;18261;53.648;9.910;2024-01-30T12:04:54;27.38;;;14.25;;
31652;SDS011;18261;53.648;9.910;2024-01-30T12:07:20;28.70;;;13.75;;
31652;SDS011;18261;53.648;9.910;2024-01-30T12:09:52;27.70;;;12.98;;
31652;SDS011;18261;53.648;9.910;2024-01-30T12:12:19;25.80;;;13.32;;
31652;SDS011;18261;53.648;9.910;2024-01-30T12:14:50;26.92;;;13.05;;
31652;SDS011;18261;53.648;9.910;2024-01-30T12:17:29;27.05;;;14.15;;
31652;SDS011;18261;53.648;9.910;2024-01-30T12:20:08;31.38;;;15.23;;
31652;SDS011;18261;53.648;9.910;2024-01-30T12:22:45;27.70;;;14.13;;
31652;SDS011;18261;53.648;9.910;2024-01-30T12:25:16;23.55;;;13.77;;
31652;SDS011;18261;53.648;9.910;2024-01-30T12:27:44;31.13;;;15.10;;
31652;SDS011;18261;53.648;9.910;2024-01-30T12:30:11;31.42;;;14.75;;
31652;SDS011;18261;53.648;9.910;2024-01-30T12:32:39;32.58;;;15.82;;
31652;SDS011;18261;53.648;9.910;2024-01-30T12:35:11;26.75;;;14.25;;
31652;SDS011;18261;53.648;9.910;2024-01-30T12:37:37;22.92;;;13.23;;
31652;SDS011;18261;53.648;9.910;2024-01-30T12:40:03;26.27;;;13.50;;
31652;SDS011;18261;53.648;9.910;2024-01-30T12:42:31;23.10;;;13.05;;
31652;SDS011;18261;53.648;9.910;2024-01-30T12:44:59;30.90;;;13.77;;
31652;SDS011;18261;53.648;9.910;2024-01-30T12:47:26;25.70;;;13.73;;
31652;SDS011;18261;53.648;9.910;2024-01-30T12:49:52;24.80;;;13.23;;
31652;SDS011;18261;53.648;9.910;2024-01-30T12:52:21;27.55;;;14.32;;
31652;SDS011;18261;53.648;9.910;2024-01-30T12:54:47;20.60;;;13.55;;
31652;SDS011;18261;53.648;9.910;2024-01-30T12:57:13;29.65;;;13.93;;
31652;SDS011;18261;53.648;9.910;2024-01-30T12:59:39;26.38;;;13.07;;
31652;SDS011;18261;53.648;9.910;2024-01-30T13:02:05;26.55;;;13.52;;
31652;SDS011;18261;53.648;9.910;2024-01-30T13:04:31;23.58;;;13.43;;
31652;SDS011;18261;53.648;9.910;2024-01-30T13:06:57;28.40;;;14.73;;
31652;SDS011;18261;53.648;9.910;2024-01-30T13:09:23;33.47;;;13.35;;
31652;SDS011;18261;53.648;9.910;2024-01-30T13:11:49;23.55;;;13.57;;
31652;SDS011;18261;53.648;9.910;2024-01-30T13:14:16;25.10;;;14.27;;
31652;SDS011;18261;53.648;9.910;2024-01-30T13:16:41;28.92;;;13.68;;
31652;SDS011;18261;53.648;9.910;2024-01-30T13:19:07;31.38;;;14.80;;
31652;SDS011;18261;53.648;9.910;2024-01-30T13:21:33;25.40;;;13.65;;
31652;SDS011;18261;53.648;9.910;2024-01-30T13:23:58;27.77;;;13.38;;
31652;SDS011;18261;53.648;9.910;2024-01-30T13:26:24;26.67;;;15.05;;
31652;SDS011;18261;53.648;9.910;2024-01-30T13:28:50;22.98;;;13.60;;
31652;SDS011;18261;53.648;9.910;2024-01-30T13:31:16;31.17;;;14.50;;
31652;SDS011;18261;53.648;9.910;2024-01-30T13:33:42;31.38;;;14.30;;
31652;SDS011;18261;53.648;9.910;2024-01-30T13:36:08;29.90;;;14.05;;
31652;SDS011;18261;53.648;9.910;2024-01-30T13:38:35;27.20;;;14.25;;
31652;SDS011;18261;53.648;9.910;2024-01-30T13:41:01;33.35;;;14.43;;
31652;SDS011;18261;53.648;9.910;2024-01-30T13:43:27;23.30;;;14.20;;
31652;SDS011;18261;53.648;9.910;2024-01-30T13:45:53;31.73;;;15.50;;
31652;SDS011;18261;53.648;9.910;2024-01-30T13:48:19;24.38;;;13.73;;
31652;SDS011;18261;53.648;9.910;2024-01-30T13:50:44;27.40;;;14.43;;
31652;SDS011;18261;53.648;9.910;2024-01-30T13:53:11;27.83;;;13.55;;
31652;SDS011;18261;53.648;9.910;2024-01-30T13:55:36;27.10;;;14.93;;
31652;SDS011;18261;53.648;9.910;2024-01-30T13:58:04;28.08;;;14.30;;
31652;SDS011;18261;53.648;9.910;2024-01-30T14:00:30;28.00;;;14.18;;
31652;SDS011;18261;53.648;9.910;2024-01-30T14:02:55;34.10;;;16.00;;
31652;SDS011;18261;53.648;9.910;2024-01-30T14:05:22;31.65;;;14.88;;
31652;SDS011;18261;53.648;9.910;2024-01-30T14:07:48;26.63;;;14.23;;
31652;SDS011;18261;53.648;9.910;2024-01-30T14:10:15;31.30;;;13.98;;
31652;SDS011;18261;53.648;9.910;2024-01-30T14:12:41;33.53;;;16.48;;
31652;SDS011;18261;53.648;9.910;2024-01-30T14:15:08;30.92;;;13.70;;
31652;SDS011;18261;53.648;9.910;2024-01-30T14:17:35;28.70;;;14.23;;
31652;SDS011;18261;53.648;9.910;2024-01-30T14:20:01;27.90;;;14.27;;
31652;SDS011;18261;53.648;9.910;2024-01-30T14:22:28;27.30;;;14.15;;
31652;SDS011;18261;53.648;9.910;2024-01-30T14:24:53;24.10;;;13.35;;